sensor_id;sensor_type;location;lat;lon;timestamp;P1;durP1;ratioP1;P2;durP2;ratioP2
85129;SDS011;75492;49.310;20.046;2024-03-08T00:01:46;22.08;;;9.98;;
85129;SDS011;75492;49.310;20.046;2024-03-08T00:06:48;20.60;;;9.10;;
85129;SDS011;75492;49.310;20.046;2024-03-08T00:11:50;21.40;;;8.02;;
85129;SDS011;75492;49.310;20.046;2024-03-08T00:16:52;20.13;;;9.02;;
85129;SDS011;75492;49.310;20.046;2024-03-08T00:21:53;20.40;;;7.38;;
85129;SDS011;75492;49.310;20.046;2024-03-08T00:26:56;17.92;;;8.27;;
85129;SDS011;75492;49.310;20.046;2024-03-08T00:31:57;19.88;;;8.43;;
85129;SDS011;75492;49.310;20.046;2024-03-08T00:36:58;21.50;;;8.55;;
85129;SDS011;75492;49.310;20.046;2024-03-08T00:42:01;18.67;;;7.78;;
85129;SDS011;75492;49.310;20.046;2024-03-08T00:47:03;17.38;;;8.32;;
85129;SDS011;75492;49.310;20.046;2024-03-08T00:52:04;20.42;;;8.77;;
85129;SDS011;75492;49.310;20.046;2024-03-08T00:57:07;20.90;;;9.05;;
85129;SDS011;75492;49.310;20.046;2024-03-08T01:02:08;19.27;;;8.45;;
85129;SDS011;75492;49.310;20.046;2024-03-08T01:07:10;19.85;;;8.10;;
85129;SDS011;75492;49.310;20.046;2024-03-08T01:12:13;18.20;;;7.78;;
85129;SDS011;75492;49.310;20.046;2024-03-08T01:17:14;20.63;;;10.40;;
85129;SDS011;75492;49.310;20.046;2024-03-08T01:22:16;16.40;;;7.30;;
85129;SDS011;75492;49.310;20.046;2024-03-08T01:27:18;19.10;;;8.85;;
85129;SDS011;75492;49.310;20.046;2024-03-08T01:32:20;23.08;;;8.20;;
85129;SDS011;75492;49.310;20.046;2024-03-08T01:37:21;16.77;;;7.78;;
85129;SDS011;75492;49.310;20.046;2024-03-08T01:42:24;17.95;;;8.15;;
85129;SDS011;75492;49.310;20.046;2024-03-08T01:47:25;18.23;;;8.02;;
85129;SDS011;75492;49.310;20.046;2024-03-08T01:52:26;19.65;;;8.43;;
85129;SDS011;75492;49.310;20.046;2024-03-08T01:57:31;18.10;;;8.13;;
85129;SDS011;75492;49.310;20.046;2024-03-08T02:02:32;14.85;;;6.88;;
85129;SDS011;75492;49.310;20.046;2024-03-08T02:07:34;17.35;;;6.95;;
85129;SDS011;75492;49.310;20.046;2024-03-08T02:12:37;21.63;;;9.50;;
85129;SDS011;75492;49.310;20.046;2024-03-08T02:17:38;16.92;;;7.68;;
85129;SDS011;75492;49.310;20.046;2024-03-08T02:22:41;17.38;;;9.10;;
85129;SDS011;75492;49.310;20.046;2024-03-08T02:27:43;17.95;;;8.45;;
85129;SDS011;75492;49.310;20.046;2024-03-08T02:32:44;16.63;;;8.52;;
85129;SDS011;75492;49.310;20.046;2024-03-08T02:37:47;17.65;;;7.40;;
85129;SDS011;75492;49.310;20.046;2024-03-08T02:42:48;17.75;;;7.78;;
85129;SDS011;75492;49.310;20.046;2024-03-08T02:47:49;17.73;;;7.05;;
85129;SDS011;75492;49.310;20.046;2024-03-08T02:52:52;16.02;;;7.35;;
85129;SDS011;75492;49.310;20.046;2024-03-08T02:57:53;17.02;;;6.70;;
85129;SDS011;75492;49.310;20.046;2024-03-08T03:02:54;13.98;;;6.45;;
85129;SDS011;75492;49.310;20.046;2024-03-08T03:07:57;14.55;;;6.90;;
85129;SDS011;75492;49.310;20.046;2024-03-08T03:12:58;14.05;;;6.03;;
85129;SDS011;75492;49.310;20.046;2024-03-08T03:18:00;15.15;;;7.55;;
85129;SDS011;75492;49.310;20.046;2024-03-08T03:23:03;14.90;;;6.60;;
85129;SDS011;75492;49.310;20.046;2024-03-08T03:28:05;34.17;;;12.45;;
85129;SDS011;75492;49.310;20.046;2024-03-08T03:33:06;13.05;;;7.38;;
85129;SDS011;75492;49.310;20.046;2024-03-08T03:38:09;14.02;;;6.85;;
85129;SDS011;75492;49.310;20.046;2024-03-08T03:43:10;15.00;;;6.53;;
85129;SDS011;75492;49.310;20.046;2024-03-08T03:48:12;14.07;;;6.70;;
85129;SDS011;75492;49.310;20.046;2024-03-08T03:53:14;13.20;;;7.07;;
85129;SDS011;75492;49.310;20.046;2024-03-08T03:58:16;13.18;;;6.75;;
85129;SDS011;75492;49.310;20.046;2024-03-08T04:03:17;13.73;;;5.93;;
85129;SDS011;75492;49.310;20.046;2024-03-08T04:08:20;13.77;;;6.05;;
85129;SDS011;75492;49.310;20.046;2024-03-08T04:13:21;19.27;;;7.47;;
85129;SDS011;75492;49.310;20.046;2024-03-08T04:18:22;15.63;;;6.63;;
85129;SDS011;75492;49.310;20.046;2024-03-08T04:23:25;13.13;;;6.25;;
85129;SDS011;75492;49.310;20.046;2024-03-08T04:28:26;9.65;;;5.30;;
85129;SDS011;75492;49.310;20.046;2024-03-08T04:33:27;14.82;;;7.15;;
85129;SDS011;75492;49.310;20.046;2024-03-08T04:38:30;16.20;;;7.53;;
85129;SDS011;75492;49.310;20.046;2024-03-08T04:43:31;17.63;;;9.52;;
85129;SDS011;75492;49.310;20.046;2024-03-08T04:48:33;18.70;;;9.13;;
85129;SDS011;75492;49.310;20.046;2024-03-08T04:53:36;17.23;;;9.38;;
85129;SDS011;75492;49.310;20.046;2024-03-08T04:58:37;15.60;;;7.03;;
85129;SDS011;75492;49.310;20.046;2024-03-08T05:03:38;17.85;;;7.93;;
85129;SDS011;75492;49.310;20.046;2024-03-08T05:08:41;13.10;;;6.32;;
85129;SDS011;75492;49.310;20.046;2024-03-08T05:13:42;16.15;;;6.85;;
85129;SDS011;75492;49.310;20.046;2024-03-08T05:18:44;14.60;;;7.25;;
85129;SDS011;75492;49.310;20.046;2024-03-08T05:23:46;11.40;;;6.03;;
85129;SDS011;75492;49.310;20.046;2024-03-08T05:28:48;17.38;;;8.07;;
85129;SDS011;75492;49.310;20.046;2024-03-08T05:33:49;17.00;;;6.15;;
85129;SDS011;75492;49.310;20.046;2024-03-08T05:38:52;12.43;;;6.20;;
85129;SDS011;75492;49.310;20.046;2024-03-08T05:43:53;15.38;;;6.35;;
85129;SDS011;75492;49.310;20.046;2024-03-08T05:48:55;14.73;;;6.35;;
85129;SDS011;75492;49.310;20.046;2024-03-08T05:53:57;12.98;;;6.47;;
85129;SDS011;75492;49.310;20.046;2024-03-08T05:58:59;12.57;;;6.22;;
85129;SDS011;75492;49.310;20.046;2024-03-08T06:04:00;11.30;;;6.30;;
85129;SDS011;75492;49.310;20.046;2024-03-08T06:09:03;13.75;;;6.25;;
85129;SDS011;75492;49.310;20.046;2024-03-08T06:14:05;16.67;;;6.85;;
85129;SDS011;75492;49.310;20.046;2024-03-08T06:19:06;15.77;;;7.10;;
85129;SDS011;75492;49.310;20.046;2024-03-08T06:24:09;11.60;;;5.63;;
85129;SDS011;75492;49.310;20.046;2024-03-08T06:29:10;13.20;;;6.28;;
85129;SDS011;75492;49.310;20.046;2024-03-08T06:34:11;12.90;;;6.57;;
85129;SDS011;75492;49.310;20.046;2024-03-08T06:39:14;17.23;;;7.05;;
85129;SDS011;75492;49.310;20.046;2024-03-08T06:44:17;13.40;;;6.40;;
85129;SDS011;75492;49.310;20.046;2024-03-08T06:49:18;12.45;;;6.38;;
85129;SDS011;75492;49.310;20.046;2024-03-08T06:54:21;10.77;;;5.78;;
85129;SDS011;75492;49.310;20.046;2024-03-08T06:59:23;18.45;;;9.00;;
85129;SDS011;75492;49.310;20.046;2024-03-08T07:04:24;14.68;;;6.65;;
85129;SDS011;75492;49.310;20.046;2024-03-08T07:09:27;19.95;;;8.38;;
85129;SDS011;75492;49.310;20.046;2024-03-08T07:14:28;10.52;;;6.70;;
85129;SDS011;75492;49.310;20.046;2024-03-08T07:19:29;14.68;;;7.32;;
85129;SDS011;75492;49.310;20.046;2024-03-08T07:24:32;17.25;;;8.70;;
85129;SDS011;75492;49.310;20.046;2024-03-08T07:29:33;15.02;;;7.10;;
85129;SDS011;75492;49.310;20.046;2024-03-08T07:34:34;14.70;;;7.20;;
85129;SDS011;75492;49.310;20.046;2024-03-08T07:39:38;15.85;;;8.30;;
85129;SDS011;75492;49.310;20.046;2024-03-08T07:44:39;16.33;;;8.23;;
85129;SDS011;75492;49.310;20.046;2024-03-08T07:49:40;12.88;;;7.60;;
85129;SDS011;75492;49.310;20.046;2024-03-08T07:54:43;16.17;;;7.97;;
85129;SDS011;75492;49.310;20.046;2024-03-08T07:59:46;20.83;;;9.57;;
85129;SDS011;75492;49.310;20.046;2024-03-08T08:04:47;16.80;;;9.45;;
85129;SDS011;75492;49.310;20.046;2024-03-08T08:09:50;15.80;;;8.38;;
85129;SDS011;75492;49.310;20.046;2024-03-08T08:14:53;21.08;;;9.82;;
85129;SDS011;75492;49.310;20.046;2024-03-08T08:19:54;19.40;;;10.32;;
85129;SDS011;75492;49.310;20.046;2024-03-08T08:24:57;27.00;;;11.85;;
85129;SDS011;75492;49.310;20.046;2024-03-08T08:29:58;20.00;;;10.00;;
85129;SDS011;75492;49.310;20.046;2024-03-08T08:35:00;18.17;;;9.98;;
85129;SDS011;75492;49.310;20.046;2024-03-08T08:40:03;22.92;;;10.13;;
85129;SDS011;75492;49.310;20.046;2024-03-08T08:45:05;14.80;;;8.30;;
85129;SDS011;75492;49.310;20.046;2024-03-08T08:50:08;18.33;;;9.65;;
85129;SDS011;75492;49.310;20.046;2024-03-08T08:55:11;18.75;;;9.13;;
85129;SDS011;75492;49.310;20.046;2024-03-08T09:00:15;20.05;;;9.88;;
85129;SDS011;75492;49.310;20.046;2024-03-08T09:05:16;18.60;;;9.88;;
85129;SDS011;75492;49.310;20.046;2024-03-08T09:10:19;25.15;;;10.15;;
85129;SDS011;75492;49.310;20.046;2024-03-08T09:15:20;19.02;;;9.82;;
85129;SDS011;75492;49.310;20.046;2024-03-08T09:20:21;26.08;;;12.07;;
85129;SDS011;75492;49.310;20.046;2024-03-08T09:25:24;22.13;;;11.32;;
85129;SDS011;75492;49.310;20.046;2024-03-08T09:30:25;22.63;;;10.35;;
85129;SDS011;75492;49.310;20.046;2024-03-08T09:35:27;24.23;;;11.93;;
85129;SDS011;75492;49.310;20.046;2024-03-08T09:40:29;24.90;;;11.35;;
85129;SDS011;75492;49.310;20.046;2024-03-08T09:45:31;23.38;;;11.38;;
85129;SDS011;75492;49.310;20.046;2024-03-08T09:50:36;28.63;;;13.48;;
85129;SDS011;75492;49.310;20.046;2024-03-08T09:55:39;26.77;;;13.10;;
85129;SDS011;75492;49.310;20.046;2024-03-08T10:00:40;21.40;;;11.07;;
85129;SDS011;75492;49.310;20.046;2024-03-08T10:05:41;23.63;;;11.80;;
85129;SDS011;75492;49.310;20.046;2024-03-08T10:10:44;23.27;;;12.27;;
85129;SDS011;75492;49.310;20.046;2024-03-08T10:15:45;23.20;;;11.45;;
85129;SDS011;75492;49.310;20.046;2024-03-08T10:20:47;27.77;;;12.70;;
85129;SDS011;75492;49.310;20.046;2024-03-08T10:26:11;26.30;;;12.43;;
85129;SDS011;75492;49.310;20.046;2024-03-08T10:31:13;25.63;;;11.68;;
85129;SDS011;75492;49.310;20.046;2024-03-08T10:36:14;30.30;;;13.05;;
85129;SDS011;75492;49.310;20.046;2024-03-08T10:41:17;29.02;;;14.05;;
85129;SDS011;75492;49.310;20.046;2024-03-08T10:46:21;23.92;;;10.85;;
85129;SDS011;75492;49.310;20.046;2024-03-08T10:51:30;23.50;;;11.70;;
85129;SDS011;75492;49.310;20.046;2024-03-08T10:56:34;26.35;;;11.82;;
85129;SDS011;75492;49.310;20.046;2024-03-08T11:01:36;28.10;;;13.07;;
85129;SDS011;75492;49.310;20.046;2024-03-08T11:06:44;32.05;;;14.65;;
85129;SDS011;75492;49.310;20.046;2024-03-08T11:11:48;32.50;;;14.73;;
85129;SDS011;75492;49.310;20.046;2024-03-08T11:16:49;23.70;;;12.73;;
85129;SDS011;75492;49.310;20.046;2024-03-08T11:21:57;29.67;;;13.10;;
85129;SDS011;75492;49.310;20.046;2024-03-08T11:27:06;30.23;;;14.00;;
85129;SDS011;75492;49.310;20.046;2024-03-08T11:32:08;34.78;;;13.85;;
85129;SDS011;75492;49.310;20.046;2024-03-08T11:37:13;36.15;;;16.42;;
85129;SDS011;75492;49.310;20.046;2024-03-08T11:42:17;33.28;;;14.40;;
85129;SDS011;75492;49.310;20.046;2024-03-08T11:47:19;27.48;;;13.88;;
85129;SDS011;75492;49.310;20.046;2024-03-08T11:52:21;28.67;;;12.93;;
85129;SDS011;75492;49.310;20.046;2024-03-08T11:57:27;23.23;;;11.70;;
85129;SDS011;75492;49.310;20.046;2024-03-08T12:02:28;27.58;;;12.75;;
85129;SDS011;75492;49.310;20.046;2024-03-08T12:07:30;26.05;;;12.73;;
85129;SDS011;75492;49.310;20.046;2024-03-08T12:12:33;24.20;;;12.57;;
85129;SDS011;75492;49.310;20.046;2024-03-08T12:17:34;26.25;;;12.02;;
85129;SDS011;75492;49.310;20.046;2024-03-08T12:22:37;28.95;;;12.65;;
85129;SDS011;75492;49.310;20.046;2024-03-08T12:27:43;28.27;;;13.45;;
85129;SDS011;75492;49.310;20.046;2024-03-08T12:32:47;34.83;;;18.38;;
85129;SDS011;75492;49.310;20.046;2024-03-08T12:37:53;32.97;;;15.40;;
85129;SDS011;75492;49.310;20.046;2024-03-08T12:42:56;41.03;;;18.75;;
85129;SDS011;75492;49.310;20.046;2024-03-08T12:47:58;39.30;;;18.55;;
85129;SDS011;75492;49.310;20.046;2024-03-08T12:52:59;46.72;;;19.63;;
85129;SDS011;75492;49.310;20.046;2024-03-08T12:58:02;43.42;;;18.60;;
85129;SDS011;75492;49.310;20.046;2024-03-08T13:03:04;43.78;;;18.05;;
85129;SDS011;75492;49.310;20.046;2024-03-08T13:08:05;46.72;;;19.30;;
85129;SDS011;75492;49.310;20.046;2024-03-08T13:13:08;43.83;;;20.15;;
85129;SDS011;75492;49.310;20.046;2024-03-08T13:18:09;45.63;;;18.60;;
85129;SDS011;75492;49.310;20.046;2024-03-08T13:23:11;47.53;;;19.63;;
85129;SDS011;75492;49.310;20.046;2024-03-08T13:28:13;46.15;;;19.27;;
85129;SDS011;75492;49.310;20.046;2024-03-08T13:33:15;47.90;;;21.25;;
85129;SDS011;75492;49.310;20.046;2024-03-08T13:38:16;35.45;;;16.55;;
85129;SDS011;75492;49.310;20.046;2024-03-08T13:43:19;41.38;;;18.23;;
85129;SDS011;75492;49.310;20.046;2024-03-08T13:48:20;30.83;;;15.55;;
85129;SDS011;75492;49.310;20.046;2024-03-08T13:53:21;43.90;;;18.02;;
85129;SDS011;75492;49.310;20.046;2024-03-08T13:58:24;32.55;;;15.43;;
85129;SDS011;75492;49.310;20.046;2024-03-08T14:03:26;35.55;;;16.05;;
85129;SDS011;75492;49.310;20.046;2024-03-08T14:08:27;36.63;;;15.05;;
85129;SDS011;75492;49.310;20.046;2024-03-08T14:13:30;34.50;;;16.42;;
85129;SDS011;75492;49.310;20.046;2024-03-08T14:18:31;31.10;;;14.15;;
85129;SDS011;75492;49.310;20.046;2024-03-08T14:23:32;35.10;;;16.00;;
85129;SDS011;75492;49.310;20.046;2024-03-08T14:28:35;38.63;;;16.40;;
85129;SDS011;75492;49.310;20.046;2024-03-08T14:33:36;42.22;;;17.63;;
85129;SDS011;75492;49.310;20.046;2024-03-08T14:38:38;41.65;;;18.20;;
85129;SDS011;75492;49.310;20.046;2024-03-08T14:43:41;47.50;;;22.33;;
85129;SDS011;75492;49.310;20.046;2024-03-08T14:48:43;51.20;;;23.98;;
85129;SDS011;75492;49.310;20.046;2024-03-08T14:53:44;47.70;;;21.30;;
85129;SDS011;75492;49.310;20.046;2024-03-08T14:58:47;44.38;;;19.55;;
85129;SDS011;75492;49.310;20.046;2024-03-08T15:03:48;48.85;;;21.60;;
85129;SDS011;75492;49.310;20.046;2024-03-08T15:08:49;52.05;;;21.48;;
85129;SDS011;75492;49.310;20.046;2024-03-08T15:13:52;46.25;;;20.60;;
85129;SDS011;75492;49.310;20.046;2024-03-08T15:18:53;45.72;;;20.13;;
85129;SDS011;75492;49.310;20.046;2024-03-08T15:23:55;51.97;;;24.38;;
85129;SDS011;75492;49.310;20.046;2024-03-08T15:28:58;50.92;;;21.38;;
85129;SDS011;75492;49.310;20.046;2024-03-08T15:33:59;45.60;;;24.00;;
85129;SDS011;75492;49.310;20.046;2024-03-08T15:39:00;49.28;;;21.13;;
85129;SDS011;75492;49.310;20.046;2024-03-08T15:44:03;53.15;;;22.23;;
85129;SDS011;75492;49.310;20.046;2024-03-08T15:49:04;46.78;;;19.70;;
85129;SDS011;75492;49.310;20.046;2024-03-08T15:54:06;44.92;;;21.45;;
85129;SDS011;75492;49.310;20.046;2024-03-08T15:59:09;46.25;;;22.05;;
85129;SDS011;75492;49.310;20.046;2024-03-08T16:04:10;46.22;;;23.23;;
85129;SDS011;75492;49.310;20.046;2024-03-08T16:09:11;43.22;;;20.77;;
85129;SDS011;75492;49.310;20.046;2024-03-08T16:14:14;51.97;;;25.10;;
85129;SDS011;75492;49.310;20.046;2024-03-08T16:19:15;52.15;;;22.75;;
85129;SDS011;75492;49.310;20.046;2024-03-08T16:24:17;51.42;;;22.67;;
85129;SDS011;75492;49.310;20.046;2024-03-08T16:29:20;46.13;;;20.85;;
85129;SDS011;75492;49.310;20.046;2024-03-08T16:34:21;46.08;;;20.65;;
85129;SDS011;75492;49.310;20.046;2024-03-08T16:39:22;43.47;;;21.75;;
85129;SDS011;75492;49.310;20.046;2024-03-08T16:44:25;46.88;;;21.33;;
85129;SDS011;75492;49.310;20.046;2024-03-08T16:49:26;79.32;;;31.73;;
85129;SDS011;75492;49.310;20.046;2024-03-08T16:54:27;63.35;;;25.75;;
85129;SDS011;75492;49.310;20.046;2024-03-08T16:59:30;56.70;;;23.08;;
85129;SDS011;75492;49.310;20.046;2024-03-08T17:04:31;57.58;;;23.33;;
85129;SDS011;75492;49.310;20.046;2024-03-08T17:09:33;63.33;;;25.52;;
85129;SDS011;75492;49.310;20.046;2024-03-08T17:14:36;56.70;;;23.52;;
85129;SDS011;75492;49.310;20.046;2024-03-08T17:19:37;66.68;;;30.60;;
85129;SDS011;75492;49.310;20.046;2024-03-08T17:24:38;50.63;;;22.90;;
85129;SDS011;75492;49.310;20.046;2024-03-08T17:29:41;54.05;;;23.63;;
85129;SDS011;75492;49.310;20.046;2024-03-08T17:34:42;55.25;;;23.25;;
85129;SDS011;75492;49.310;20.046;2024-03-08T17:39:44;50.90;;;22.38;;
85129;SDS011;75492;49.310;20.046;2024-03-08T17:44:46;56.10;;;23.10;;
85129;SDS011;75492;49.310;20.046;2024-03-08T17:49:48;59.60;;;24.02;;
85129;SDS011;75492;49.310;20.046;2024-03-08T17:54:49;56.95;;;23.85;;
85129;SDS011;75492;49.310;20.046;2024-03-08T17:59:52;112.38;;;43.25;;
85129;SDS011;75492;49.310;20.046;2024-03-08T18:04:53;85.95;;;37.10;;
85129;SDS011;75492;49.310;20.046;2024-03-08T18:09:55;166.10;;;61.75;;
85129;SDS011;75492;49.310;20.046;2024-03-08T18:14:58;105.70;;;43.78;;
85129;SDS011;75492;49.310;20.046;2024-03-08T18:19:59;107.45;;;45.22;;
85129;SDS011;75492;49.310;20.046;2024-03-08T18:25:01;129.60;;;60.22;;
85129;SDS011;75492;49.310;20.046;2024-03-08T18:30:04;85.18;;;38.70;;
85129;SDS011;75492;49.310;20.046;2024-03-08T18:35:07;75.70;;;35.58;;
85129;SDS011;75492;49.310;20.046;2024-03-08T18:40:08;72.03;;;31.50;;
85129;SDS011;75492;49.310;20.046;2024-03-08T18:45:12;84.80;;;36.78;;
85129;SDS011;75492;49.310;20.046;2024-03-08T18:50:16;81.60;;;33.28;;
85129;SDS011;75492;49.310;20.046;2024-03-08T18:55:18;80.18;;;31.83;;
85129;SDS011;75492;49.310;20.046;2024-03-08T19:00:22;71.00;;;27.58;;
85129;SDS011;75492;49.310;20.046;2024-03-08T19:05:24;94.10;;;27.65;;
85129;SDS011;75492;49.310;20.046;2024-03-08T19:10:26;87.88;;;23.88;;
85129;SDS011;75492;49.310;20.046;2024-03-08T19:15:29;99.57;;;24.77;;
85129;SDS011;75492;49.310;20.046;2024-03-08T19:20:31;84.93;;;21.30;;
85129;SDS011;75492;49.310;20.046;2024-03-08T19:25:33;57.67;;;16.85;;
85129;SDS011;75492;49.310;20.046;2024-03-08T19:30:36;73.72;;;19.63;;
85129;SDS011;75492;49.310;20.046;2024-03-08T19:35:37;45.88;;;16.67;;
85129;SDS011;75492;49.310;20.046;2024-03-08T19:40:39;49.45;;;17.13;;
85129;SDS011;75492;49.310;20.046;2024-03-08T19:45:42;92.25;;;40.60;;
85129;SDS011;75492;49.310;20.046;2024-03-08T19:50:43;54.13;;;20.27;;
85129;SDS011;75492;49.310;20.046;2024-03-08T19:55:44;94.30;;;33.47;;
85129;SDS011;75492;49.310;20.046;2024-03-08T20:00:47;87.85;;;31.23;;
85129;SDS011;75492;49.310;20.046;2024-03-08T20:05:49;89.80;;;27.80;;
85129;SDS011;75492;49.310;20.046;2024-03-08T20:10:51;117.72;;;36.20;;
85129;SDS011;75492;49.310;20.046;2024-03-08T20:15:53;73.07;;;25.60;;
85129;SDS011;75492;49.310;20.046;2024-03-08T20:20:55;61.85;;;17.13;;
85129;SDS011;75492;49.310;20.046;2024-03-08T20:25:56;49.75;;;16.85;;
85129;SDS011;75492;49.310;20.046;2024-03-08T20:31:00;42.25;;;13.50;;
85129;SDS011;75492;49.310;20.046;2024-03-08T20:36:06;47.55;;;11.88;;
